Huntington, IN (46750)

12:47 PM EST on February 11, 2016 (GMT -0500)
Carlisle Crossing | | Change Station
CLOSE
Current Station
Personal Weather Station
Location: Huntington, IN
Elevation: 820 ft
Nearby Weather Stations

Elev 820 ft 40.91 °N, 85.51 °W | Updated 2 minutes ago

Partly Cloudy
Partly Cloudy
21.7 °F
Feels Like 22 °F
N
1.7
Wind Variable Wind from SW

Today
High -- | Low -- °F
--% Chance of Precip.
Yesterday
High -- | Low -- °F
Precip. -- in
Pressure 30.27 in
Visibility 10.0 miles
Clouds Few 1600 ft
Scattered Clouds 2200 ft
Mostly Cloudy 4300 ft
Windchill 22 °F
Dew Point 14 °F
Humidity 72%
Rainfall 0.00 in
Snow Depth Not available.
7:41 AM 6:11 PM
Waxing Crescent, 13% visible
SPECI KFWA 111727Z 31010KT 10SM -SN FEW016 SCT022 BKN043 M01/M14 A3027 RMK AO2 P0000 T10111139
Pressure 30.27 in
Visibility 10.0 miles
Clouds Few 1600 ft
Scattered Clouds 2200 ft
Mostly Cloudy 4300 ft
Windchill 22 °F
Dew Point 14 °F
Humidity 72%
Rainfall 0.00 in
Snow Depth Not available.
7:41 AM 6:11 PM
Waxing Crescent, 13% visible
SPECI KFWA 111727Z 31010KT 10SM -SN FEW016 SCT022 BKN043 M01/M14 A3027 RMK AO2 P0000 T10111139

10-Day Weather Forecast

Almanac

Astronomy

Feb. 11, 2016 Rise Set
Actual Time
Civil Twilight
Nautical Twilight
Astronomical Twilight
Moon
Length of Visible Light
Length of Day
Tomorrow will be .
, % of the Moon is Illuminated

Today's Extremes

State Highs State Lows

Community

WunderPhotos

Upload Photos

1,892,113 photos uploaded!

WunderBlog® & News

Nearby

Air Quality

  Air Quality AQ Index Pollutant
Not available.

Snow Depth

Station Depth Elevation

Earthquake Activity

City Distance Mag. Time & Date
Minimum magnitude displayed is 2.5.

Coastal Water Temperatures

Place Temperature

Stations

Nearby Weather Stations

Station Location Temp. Windchill Dew Point Humidity Wind Precip. Elev Updated Type
                   

Watches & Warnings

There are currently no watches in effect.